createdAt,value
2023-01-13T00:00:23.646Z,1000.00
2023-01-13T00:01:23.542Z,999.97
2023-01-13T00:02:23.527Z,1000.01
2023-01-13T00:03:23.411Z,1000.03
2023-01-13T00:04:23.407Z,1000.02
2023-01-13T00:05:23.275Z,1000.00
2023-01-13T00:06:23.212Z,1000.01
2023-01-13T00:07:23.149Z,999.93
2023-01-13T00:08:23.087Z,999.97
2023-01-13T00:09:23.014Z,999.97
2023-01-13T00:10:22.961Z,1000.06
2023-01-13T00:11:22.882Z,999.99
2023-01-13T00:12:22.817Z,1000.01
2023-01-13T00:13:22.758Z,1000.07
2023-01-13T00:14:22.682Z,1000.10
2023-01-13T00:15:22.621Z,1000.07
2023-01-13T00:16:22.596Z,1000.03
2023-01-13T00:17:22.494Z,1000.03
2023-01-13T00:18:22.421Z,1000.02
2023-01-13T00:19:22.352Z,1000.05
2023-01-13T00:20:22.286Z,1000.05
2023-01-13T00:21:22.222Z,1000.13
2023-01-13T00:22:22.157Z,1000.13
2023-01-13T00:24:22.048Z,1000.13
2023-01-13T00:25:21.984Z,1000.13
2023-01-13T00:26:21.926Z,1000.12
2023-01-13T00:27:21.852Z,1000.09
2023-01-13T00:28:21.805Z,1000.11
2023-01-13T00:29:21.718Z,1000.08
2023-01-13T00:30:42.646Z,1000.09
2023-01-13T00:31:21.630Z,1000.06
2023-01-13T00:32:21.525Z,999.97
2023-01-13T00:33:21.457Z,1000.00
2023-01-13T00:34:21.402Z,1000.10
2023-01-13T00:35:21.354Z,999.94
2023-01-13T00:36:42.254Z,1000.03
2023-01-13T00:37:21.195Z,1000.04
2023-01-13T00:38:21.131Z,1000.04
2023-01-13T00:39:21.073Z,1000.02
2023-01-13T00:40:21.040Z,1000.08
2023-01-13T00:41:20.930Z,999.99
2023-01-13T00:42:41.891Z,1000.04
2023-01-13T00:43:20.810Z,1000.04
2023-01-13T00:44:20.738Z,999.98
2023-01-13T00:45:20.692Z,1000.03
2023-01-13T00:46:20.689Z,999.97
2023-01-13T00:47:20.533Z,999.98
2023-01-13T00:48:41.468Z,1000.01
2023-01-13T00:49:20.413Z,1000.01
2023-01-13T00:50:20.337Z,1000.03
2023-01-13T00:51:20.296Z,1000.05
2023-01-13T00:52:20.212Z,1000.02
2023-01-13T00:53:20.141Z,999.96
2023-01-13T00:54:41.069Z,1000.01
2023-01-13T00:55:20.021Z,999.99
2023-01-13T00:56:27.332Z,1000.02
2023-01-13T00:57:19.894Z,999.99
2023-01-13T00:58:19.815Z,1000.00
2023-01-13T00:59:19.754Z,999.95
2023-01-13T01:00:40.685Z,999.91
2023-01-13T01:01:19.704Z,999.97
2023-01-13T01:02:19.589Z,999.92
2023-01-13T01:03:19.493Z,999.97
2023-01-13T01:04:19.441Z,999.94
2023-01-13T01:05:19.353Z,999.95
2023-01-13T01:06:40.293Z,999.97
2023-01-13T01:07:19.229Z,1000.01
2023-01-13T01:08:19.183Z,1000.07
2023-01-13T01:09:19.089Z,999.96
2023-01-13T01:10:19.027Z,999.98
2023-01-13T01:11:18.962Z,1000.05
2023-01-13T01:12:39.896Z,1000.06
2023-01-13T01:13:18.831Z,1000.04
2023-01-13T01:14:18.818Z,1000.02
2023-01-13T01:15:18.699Z,1000.04
2023-01-13T01:16:18.727Z,1000.02
2023-01-13T01:17:18.564Z,1000.04
2023-01-13T01:18:40.026Z,1000.06
2023-01-13T01:19:18.435Z,1000.14
2023-01-13T01:20:18.406Z,1000.05
2023-01-13T01:21:18.318Z,1000.02
2023-01-13T01:22:18.240Z,1000.07
2023-01-13T01:23:18.195Z,1000.10
2023-01-13T01:24:39.098Z,1000.04
2023-01-13T01:25:18.054Z,1000.05
2023-01-13T01:26:17.980Z,1000.05
2023-01-13T01:27:17.912Z,1000.08
2023-01-13T01:28:17.847Z,1000.08
2023-01-13T01:29:17.779Z,1000.05
2023-01-13T01:30:38.709Z,1000.03
2023-01-13T01:31:17.720Z,1000.07
2023-01-13T01:32:17.580Z,999.99
2023-01-13T01:33:17.521Z,1000.01
2023-01-13T01:34:17.461Z,1000.06
2023-01-13T01:35:17.385Z,1000.03
2023-01-13T01:36:38.308Z,999.96
2023-01-13T01:37:17.256Z,999.95
2023-01-13T01:38:17.192Z,999.83
2023-01-13T01:39:17.125Z,1000.02
2023-01-13T01:40:17.063Z,999.94
2023-01-13T01:41:16.999Z,999.95
2023-01-13T01:42:37.918Z,999.91
2023-01-13T01:43:16.872Z,999.93
2023-01-13T01:44:16.802Z,999.90
2023-01-13T01:45:16.734Z,999.92
2023-01-13T01:46:16.719Z,999.89
2023-01-13T01:47:16.610Z,999.90
2023-01-13T01:48:37.527Z,999.91
2023-01-13T01:49:16.477Z,999.93
2023-01-13T01:50:16.405Z,999.91
2023-01-13T01:51:16.341Z,999.77
2023-01-13T01:52:16.284Z,999.86
2023-01-13T01:53:16.210Z,999.86
2023-01-13T01:54:37.128Z,999.86
2023-01-13T01:55:16.088Z,999.85
2023-01-13T01:56:16.023Z,999.86
2023-01-13T01:57:15.965Z,999.80
2023-01-13T01:58:15.897Z,999.86
2023-01-13T01:59:15.837Z,999.81
2023-01-13T02:00:36.747Z,999.90
2023-01-13T02:01:15.801Z,999.84
2023-01-13T02:02:15.719Z,999.85
2023-01-13T02:03:15.579Z,999.87
2023-01-13T02:04:15.509Z,999.81
2023-01-13T02:05:15.439Z,999.84
2023-01-13T02:06:36.351Z,999.82
2023-01-13T02:07:15.296Z,999.80
2023-01-13T02:08:15.227Z,999.81
2023-01-13T02:09:15.163Z,999.80
2023-01-13T02:10:15.103Z,999.79
2023-01-13T02:11:15.035Z,999.86
2023-01-13T02:12:35.953Z,999.75
2023-01-13T02:13:14.902Z,999.75
2023-01-13T02:14:14.837Z,999.82
2023-01-13T02:15:14.771Z,999.78
2023-01-13T02:16:14.767Z,999.74
2023-01-13T02:17:14.644Z,999.74
2023-01-13T02:18:35.555Z,999.74
2023-01-13T02:19:14.522Z,999.71
2023-01-13T02:20:14.453Z,999.76
2023-01-13T02:21:14.392Z,999.72
2023-01-13T02:22:14.324Z,999.73
2023-01-13T02:23:14.253Z,999.71
2023-01-13T02:24:35.168Z,999.66
2023-01-13T02:25:14.122Z,999.62
2023-01-13T02:26:14.049Z,999.66
2023-01-13T02:27:13.989Z,999.69
2023-01-13T02:28:13.919Z,999.73
2023-01-13T02:29:13.859Z,999.69
2023-01-13T02:30:34.772Z,999.72
2023-01-13T02:31:13.756Z,999.69
2023-01-13T02:32:13.660Z,999.69
2023-01-13T02:33:13.610Z,999.67
2023-01-13T02:34:13.526Z,999.68
2023-01-13T02:35:13.469Z,999.66
2023-01-13T02:36:34.390Z,999.69
2023-01-13T02:37:13.348Z,999.68
2023-01-13T02:38:13.264Z,999.69
2023-01-13T02:39:13.203Z,999.69
2023-01-13T02:40:13.143Z,999.66
2023-01-13T02:41:13.099Z,999.70
2023-01-13T02:42:33.999Z,999.64
2023-01-13T02:43:12.934Z,999.64
2023-01-13T02:44:12.881Z,999.63
2023-01-13T02:45:12.812Z,999.65
2023-01-13T02:46:12.751Z,999.63
2023-01-13T02:47:12.676Z,999.62
2023-01-13T02:48:33.602Z,999.65
2023-01-13T02:49:12.546Z,999.61
2023-01-13T02:50:12.482Z,999.56
2023-01-13T02:51:12.427Z,999.58
2023-01-13T02:52:12.358Z,999.60
2023-01-13T02:53:12.280Z,999.58
2023-01-13T02:54:33.216Z,999.61
2023-01-13T02:55:12.183Z,999.55
2023-01-13T02:56:12.111Z,999.52
2023-01-13T02:57:12.033Z,999.46
2023-01-13T02:58:11.958Z,999.55
2023-01-13T02:59:11.905Z,999.51
2023-01-13T03:00:32.791Z,999.53
2023-01-13T03:01:11.832Z,999.50
2023-01-13T03:02:11.781Z,999.46
2023-01-13T03:03:11.651Z,999.56
2023-01-13T03:04:11.528Z,999.51
2023-01-13T03:05:11.467Z,999.46
2023-01-13T03:06:32.387Z,999.45
2023-01-13T03:07:11.338Z,999.46
2023-01-13T03:08:11.270Z,999.55
2023-01-13T03:09:11.219Z,999.44
2023-01-13T03:10:11.151Z,999.42
2023-01-13T03:11:11.087Z,999.45
2023-01-13T03:12:31.991Z,999.29
2023-01-13T03:13:10.940Z,999.32
2023-01-13T03:14:10.883Z,999.30
2023-01-13T03:15:10.842Z,999.35
2023-01-13T03:16:10.758Z,999.32
2023-01-13T03:17:10.691Z,999.29
2023-01-13T03:18:31.604Z,999.30
2023-01-13T03:19:10.561Z,999.33
2023-01-13T03:20:10.481Z,999.37
2023-01-13T03:21:10.420Z,999.38
2023-01-13T03:22:10.370Z,999.36
2023-01-13T03:23:10.283Z,999.36
2023-01-13T03:24:31.215Z,999.37
2023-01-13T03:25:10.164Z,999.34
2023-01-13T03:26:10.097Z,999.29
2023-01-13T03:27:10.025Z,999.27
2023-01-13T03:28:09.973Z,999.34
2023-01-13T03:29:09.893Z,999.35
2023-01-13T03:30:30.872Z,999.35
2023-01-13T03:31:09.779Z,999.37
2023-01-13T03:32:09.697Z,999.37
2023-01-13T03:33:09.634Z,999.38
2023-01-13T03:34:09.608Z,999.38
2023-01-13T03:35:09.529Z,999.36
2023-01-13T03:36:30.430Z,999.33
2023-01-13T03:37:09.370Z,999.34
2023-01-13T03:38:09.316Z,999.35
2023-01-13T03:39:09.237Z,999.34
2023-01-13T03:40:09.177Z,999.32
2023-01-13T03:41:09.131Z,999.38
2023-01-13T03:42:30.041Z,999.40
2023-01-13T03:43:09.021Z,999.40
2023-01-13T03:44:08.932Z,999.35
2023-01-13T03:45:08.844Z,999.38
2023-01-13T03:46:08.821Z,999.30
2023-01-13T03:47:08.716Z,999.32
2023-01-13T03:48:29.637Z,999.25
2023-01-13T03:49:08.589Z,999.26
2023-01-13T03:50:08.560Z,999.32
2023-01-13T03:51:08.466Z,999.28
2023-01-13T03:52:08.418Z,999.33
2023-01-13T03:53:08.322Z,999.29
2023-01-13T03:54:29.248Z,999.29
2023-01-13T03:55:08.189Z,999.35
2023-01-13T03:56:08.154Z,999.37
2023-01-13T03:57:08.069Z,999.26
2023-01-13T03:58:08.057Z,999.32
2023-01-13T03:59:07.928Z,999.35
2023-01-13T04:00:28.869Z,999.33
2023-01-13T04:01:07.865Z,999.29
2023-01-13T04:02:07.858Z,999.29
2023-01-13T04:03:07.692Z,999.30
2023-01-13T04:04:07.645Z,999.30
2023-01-13T04:05:07.554Z,999.32
2023-01-13T04:06:28.465Z,999.31
2023-01-13T04:07:07.405Z,999.31
2023-01-13T04:08:07.349Z,999.26
2023-01-13T04:09:07.282Z,999.26
2023-01-13T04:10:07.213Z,999.22
2023-01-13T04:11:07.144Z,999.24
2023-01-13T04:12:28.083Z,999.24
2023-01-13T04:13:07.054Z,999.28
2023-01-13T04:14:06.980Z,999.27
2023-01-13T04:15:06.880Z,999.26
2023-01-13T04:16:06.863Z,999.31
2023-01-13T04:17:06.763Z,999.26
2023-01-13T04:18:27.683Z,999.28
2023-01-13T04:19:06.626Z,999.30
2023-01-13T04:20:06.557Z,999.29
2023-01-13T04:21:06.496Z,999.28
2023-01-13T04:22:06.423Z,999.30
2023-01-13T04:23:06.370Z,999.32
2023-01-13T04:24:27.289Z,999.30
2023-01-13T04:25:06.241Z,999.28
2023-01-13T04:26:06.166Z,999.26
2023-01-13T04:27:06.110Z,999.31
2023-01-13T04:28:06.048Z,999.35
2023-01-13T04:29:05.964Z,999.38
2023-01-13T04:30:26.893Z,999.33
2023-01-13T04:31:05.878Z,999.38
2023-01-13T04:32:05.788Z,999.31
2023-01-13T04:33:05.704Z,999.28
2023-01-13T04:34:05.652Z,999.28
2023-01-13T04:35:05.578Z,999.34
2023-01-13T04:36:26.497Z,999.36
2023-01-13T04:37:05.464Z,999.35
2023-01-13T04:38:05.380Z,999.34
2023-01-13T04:39:05.312Z,999.33
2023-01-13T04:40:05.250Z,999.26
2023-01-13T04:41:05.183Z,999.29
2023-01-13T04:42:26.107Z,999.28
2023-01-13T04:43:05.051Z,999.28
2023-01-13T04:44:05.002Z,999.29
2023-01-13T04:45:04.925Z,999.29
2023-01-13T04:46:04.884Z,999.31
2023-01-13T04:47:04.785Z,999.30
2023-01-13T04:48:25.715Z,999.31
2023-01-13T04:49:04.661Z,999.31
2023-01-13T04:50:04.597Z,999.32
2023-01-13T04:51:04.542Z,999.34
2023-01-13T04:52:04.460Z,999.40
2023-01-13T04:53:04.397Z,999.36
2023-01-13T04:54:25.310Z,999.30
2023-01-13T04:55:04.260Z,999.33
2023-01-13T04:56:04.195Z,999.34
2023-01-13T04:57:04.127Z,999.35
2023-01-13T04:58:04.070Z,999.39
2023-01-13T04:59:04.016Z,999.43
2023-01-13T05:00:24.924Z,999.36
2023-01-13T05:01:03.946Z,999.40
2023-01-13T05:02:03.853Z,999.39
2023-01-13T05:03:03.747Z,999.41
2023-01-13T05:04:03.667Z,999.43
2023-01-13T05:05:03.690Z,999.46
2023-01-13T05:06:24.525Z,999.35
2023-01-13T05:07:03.474Z,999.46
2023-01-13T05:08:03.475Z,999.46
2023-01-13T05:09:03.370Z,999.59
2023-01-13T05:10:03.327Z,999.55
2023-01-13T05:11:03.210Z,999.57
2023-01-13T05:12:24.142Z,999.53
2023-01-13T05:13:03.076Z,999.60
2023-01-13T05:14:03.032Z,999.63
2023-01-13T05:15:02.940Z,999.70
2023-01-13T05:16:05.083Z,999.64
2023-01-13T05:17:02.820Z,999.63
2023-01-13T05:18:23.778Z,999.60
2023-01-13T05:19:02.684Z,999.62
2023-01-13T05:20:02.618Z,999.60
2023-01-13T05:21:02.570Z,999.60
2023-01-13T05:22:02.497Z,999.76
2023-01-13T05:23:02.446Z,999.71
2023-01-13T05:24:23.350Z,999.80
2023-01-13T05:25:02.301Z,999.84
2023-01-13T05:26:02.233Z,999.78
2023-01-13T05:27:02.190Z,999.93
2023-01-13T05:28:02.095Z,999.93
2023-01-13T05:29:02.038Z,999.90
2023-01-13T05:30:22.949Z,999.89
2023-01-13T05:31:01.930Z,1000.00
2023-01-13T05:32:01.829Z,999.96
2023-01-13T05:33:01.761Z,1000.02
2023-01-13T05:34:01.709Z,1000.01
2023-01-13T05:35:01.633Z,1000.06
2023-01-13T05:36:22.554Z,999.95
2023-01-13T05:37:01.525Z,1000.00
2023-01-13T05:38:01.443Z,1000.01
2023-01-13T05:39:01.371Z,999.92
2023-01-13T05:40:01.310Z,1000.08
2023-01-13T05:41:01.235Z,1000.12
2023-01-13T05:42:22.159Z,1000.09
2023-01-13T05:43:01.112Z,1000.12
2023-01-13T05:44:01.041Z,1000.04
2023-01-13T05:45:00.970Z,1000.04
2023-01-13T05:46:00.970Z,1000.03
2023-01-13T05:47:00.841Z,1000.02
2023-01-13T05:48:21.771Z,1000.07
2023-01-13T05:49:00.710Z,1000.03
2023-01-13T05:50:00.653Z,1000.01
2023-01-13T05:51:00.575Z,1000.07
2023-01-13T05:52:00.510Z,1000.10
2023-01-13T05:53:00.447Z,1000.13
2023-01-13T05:54:21.359Z,1000.13
2023-01-13T05:55:00.306Z,1000.16
2023-01-13T05:56:00.262Z,1000.23
2023-01-13T05:57:00.177Z,1000.19
2023-01-13T05:58:00.128Z,1000.19
2023-01-13T05:59:00.037Z,1000.24
2023-01-13T06:00:20.971Z,1000.31
2023-01-13T06:00:59.977Z,1000.30
2023-01-13T06:01:59.850Z,1000.21
2023-01-13T06:02:59.817Z,1000.19
2023-01-13T06:03:59.756Z,1000.26
2023-01-13T06:04:59.642Z,1000.28
2023-01-13T06:06:20.564Z,1000.29
2023-01-13T06:06:59.546Z,1000.22
2023-01-13T06:07:59.443Z,1000.23
2023-01-13T06:08:59.385Z,1000.18
2023-01-13T06:09:59.323Z,1000.16
2023-01-13T06:10:59.296Z,1000.11
2023-01-13T06:12:20.164Z,1000.10
2023-01-13T06:12:59.113Z,1000.14
2023-01-13T06:13:59.049Z,1000.21
2023-01-13T06:14:59.002Z,1000.14
2023-01-13T06:15:58.997Z,999.92
2023-01-13T06:16:58.853Z,999.91
2023-01-13T06:18:19.769Z,999.84
2023-01-13T06:18:58.710Z,1000.01
2023-01-13T06:19:58.639Z,1000.10
2023-01-13T06:20:58.580Z,1000.17
2023-01-13T06:21:58.510Z,1000.17
2023-01-13T06:22:58.454Z,1000.10
2023-01-13T06:24:19.367Z,1000.07
2023-01-13T06:24:58.317Z,999.94
2023-01-13T06:25:58.245Z,1000.05
2023-01-13T06:26:58.178Z,999.97
2023-01-13T06:27:58.111Z,999.96
2023-01-13T06:28:58.072Z,1000.07
2023-01-13T06:30:18.974Z,1000.13
2023-01-13T06:30:57.922Z,1000.10
2023-01-13T06:31:57.852Z,1000.07
2023-01-13T06:32:57.781Z,1000.02
2023-01-13T06:33:57.717Z,1000.02
2023-01-13T06:34:57.662Z,999.98
2023-01-13T06:36:18.581Z,999.95
2023-01-13T06:36:57.532Z,1000.01
2023-01-13T06:37:57.447Z,1000.08
2023-01-13T06:38:57.398Z,1000.10
2023-01-13T06:39:57.323Z,1000.09
2023-01-13T06:40:57.253Z,1000.15
2023-01-13T06:42:18.189Z,1000.11
2023-01-13T06:42:57.129Z,1000.08
2023-01-13T06:43:57.063Z,1000.07
2023-01-13T06:44:56.984Z,1000.07
2023-01-13T06:45:56.939Z,1000.04
2023-01-13T06:46:56.904Z,1000.02
2023-01-13T06:48:17.792Z,999.98
2023-01-13T06:48:56.809Z,999.94
2023-01-13T06:49:56.668Z,999.92
2023-01-13T06:50:56.597Z,999.85
2023-01-13T06:51:56.518Z,999.80
2023-01-13T06:52:56.507Z,999.81
2023-01-13T06:54:17.372Z,999.73
2023-01-13T06:54:56.327Z,999.68
2023-01-13T06:55:56.267Z,999.63
2023-01-13T06:56:56.208Z,999.64
2023-01-13T06:57:56.128Z,999.67
2023-01-13T06:58:56.060Z,999.68
2023-01-13T07:00:17.006Z,999.74
2023-01-13T07:00:56.048Z,999.84
2023-01-13T07:01:56.028Z,999.87
2023-01-13T07:02:55.818Z,999.86
2023-01-13T07:03:55.749Z,999.89
2023-01-13T07:04:55.682Z,999.92
2023-01-13T07:06:16.579Z,999.86
2023-01-13T07:06:55.536Z,999.85
2023-01-13T07:07:55.476Z,999.85
2023-01-13T07:08:55.419Z,999.92
2023-01-13T07:09:55.342Z,999.96
2023-01-13T07:10:55.283Z,1000.02
2023-01-13T07:12:16.213Z,1000.09
2023-01-13T07:12:55.142Z,1000.05
2023-01-13T07:13:55.084Z,999.97
2023-01-13T07:14:55.003Z,999.93
2023-01-13T07:15:54.941Z,999.90
2023-01-13T07:16:54.873Z,999.90
2023-01-13T07:18:15.787Z,999.89
2023-01-13T07:18:54.743Z,999.80
2023-01-13T07:19:54.687Z,999.67
2023-01-13T07:20:54.607Z,999.65
2023-01-13T07:21:54.539Z,999.67
2023-01-13T07:22:54.508Z,999.72
2023-01-13T07:24:15.410Z,999.67
2023-01-13T07:24:54.347Z,999.69
2023-01-13T07:25:54.287Z,999.70
2023-01-13T07:26:54.234Z,999.64
2023-01-13T07:27:54.143Z,999.65
2023-01-13T07:28:54.076Z,999.60
2023-01-13T07:30:15.001Z,999.62
2023-01-13T07:30:53.947Z,999.71
2023-01-13T07:31:53.945Z,999.93
2023-01-13T07:32:53.818Z,1000.05
2023-01-13T07:33:53.760Z,1000.08
2023-01-13T07:34:53.681Z,999.93
2023-01-13T07:36:14.629Z,999.89
2023-01-13T07:36:53.552Z,999.87
2023-01-13T07:37:53.511Z,999.77
2023-01-13T07:38:54.934Z,999.77
2023-01-13T07:39:53.359Z,999.73
2023-01-13T07:40:53.293Z,999.80
2023-01-13T07:42:14.207Z,999.86
2023-01-13T07:42:53.157Z,999.82
2023-01-13T07:43:53.104Z,999.81
2023-01-13T07:44:53.035Z,999.77
2023-01-13T07:45:52.984Z,999.75
2023-01-13T07:46:52.899Z,999.80
2023-01-13T07:48:13.829Z,999.88
2023-01-13T07:48:52.767Z,999.94
2023-01-13T07:49:52.720Z,999.94
2023-01-13T07:50:52.634Z,999.95
2023-01-13T07:51:52.567Z,999.98
2023-01-13T07:52:52.507Z,1000.03
2023-01-13T07:54:13.431Z,1000.04
2023-01-13T07:54:52.368Z,999.99
2023-01-13T07:55:52.296Z,999.96
2023-01-13T07:56:52.242Z,999.95
2023-01-13T07:57:52.169Z,999.92
2023-01-13T07:58:52.108Z,999.96
2023-01-13T08:00:13.141Z,999.98
2023-01-13T08:00:52.024Z,999.96
2023-01-13T08:01:52.017Z,999.95
2023-01-13T08:02:51.864Z,999.98
2023-01-13T08:03:51.775Z,999.94
2023-01-13T08:04:51.716Z,1000.02
2023-01-13T08:06:12.642Z,999.99
2023-01-13T08:06:51.572Z,1000.04
2023-01-13T08:07:51.503Z,1000.12
2023-01-13T08:08:51.445Z,1000.16
2023-01-13T08:09:51.379Z,1000.16
2023-01-13T08:10:51.319Z,1000.26
2023-01-13T08:12:12.233Z,1000.23
2023-01-13T08:12:53.718Z,1000.31
2023-01-13T08:13:51.109Z,1000.30
2023-01-13T08:14:51.052Z,1000.33
2023-01-13T08:15:50.988Z,1000.34
2023-01-13T08:16:50.977Z,1000.31
2023-01-13T08:18:11.852Z,1000.32
2023-01-13T08:18:50.791Z,1000.32
2023-01-13T08:19:50.724Z,1000.37
2023-01-13T08:20:50.661Z,1000.41
2023-01-13T08:21:50.596Z,1000.43
2023-01-13T08:22:50.527Z,1000.42
2023-01-13T08:24:11.443Z,1000.48
2023-01-13T08:24:50.395Z,1000.49
2023-01-13T08:25:50.337Z,1000.53
2023-01-13T08:26:50.274Z,1000.53
2023-01-13T08:27:50.187Z,1000.48
2023-01-13T08:28:50.135Z,1000.43
2023-01-13T08:30:11.044Z,1000.39
2023-01-13T08:30:50.061Z,1000.31
2023-01-13T08:31:49.936Z,1000.31
2023-01-13T08:32:49.864Z,1000.34
2023-01-13T08:33:49.948Z,1000.29
2023-01-13T08:34:49.738Z,1000.32
2023-01-13T08:36:10.657Z,1000.31
2023-01-13T08:36:49.608Z,1000.37
2023-01-13T08:37:49.546Z,1000.41
2023-01-13T08:38:49.467Z,1000.42
2023-01-13T08:39:49.402Z,1000.50
2023-01-13T08:40:49.342Z,1000.48
2023-01-13T08:42:10.306Z,1000.44
2023-01-13T08:42:49.239Z,1000.45
2023-01-13T08:43:49.144Z,1000.51
2023-01-13T08:44:49.079Z,1000.51
2023-01-13T08:45:49.061Z,1000.46
2023-01-13T08:46:48.951Z,1000.31
2023-01-13T08:48:09.869Z,1000.26
2023-01-13T08:48:48.842Z,1000.29
2023-01-13T08:49:48.761Z,1000.32
2023-01-13T08:50:48.689Z,1000.38
2023-01-13T08:51:48.636Z,1000.42
2023-01-13T08:52:48.560Z,1000.46
2023-01-13T08:54:09.492Z,1000.48
2023-01-13T08:54:48.427Z,1000.57
2023-01-13T08:55:48.385Z,1000.70
2023-01-13T08:56:48.333Z,1000.75
2023-01-13T08:57:48.248Z,1000.72
2023-01-13T08:58:48.171Z,1000.77
2023-01-13T09:00:09.078Z,1000.69
2023-01-13T09:00:48.046Z,1000.63
2023-01-13T09:01:48.161Z,1000.67
2023-01-13T09:02:47.900Z,1000.72
2023-01-13T09:03:47.833Z,1000.65
2023-01-13T09:04:47.848Z,1000.62
2023-01-13T09:06:08.691Z,1000.64
2023-01-13T09:06:47.639Z,1000.60
2023-01-13T09:07:47.571Z,1000.49
2023-01-13T09:08:47.505Z,1000.27
2023-01-13T09:09:47.464Z,1000.14
2023-01-13T09:10:47.404Z,1000.03
2023-01-13T09:12:08.303Z,1000.15
2023-01-13T09:12:47.256Z,1000.24
2023-01-13T09:13:47.171Z,1000.27
2023-01-13T09:14:47.129Z,1000.20
2023-01-13T09:15:47.097Z,1000.10
2023-01-13T09:16:46.982Z,999.75
2023-01-13T09:18:07.923Z,999.47
2023-01-13T09:18:46.860Z,999.40
2023-01-13T09:19:46.792Z,999.66
2023-01-13T09:20:46.727Z,1000.13
2023-01-13T09:21:46.659Z,1000.42
2023-01-13T09:22:46.595Z,1000.57
2023-01-13T09:24:07.512Z,1000.55
2023-01-13T09:24:46.504Z,1000.51
2023-01-13T09:25:46.402Z,1000.51
2023-01-13T09:26:46.338Z,1000.46
2023-01-13T09:27:46.259Z,1000.45
2023-01-13T09:28:46.198Z,1000.51
2023-01-13T09:30:07.114Z,1000.49
2023-01-13T09:30:46.151Z,1000.48
2023-01-13T09:31:46.000Z,1000.54
2023-01-13T09:32:45.935Z,1000.55
2023-01-13T09:33:45.863Z,1000.53
2023-01-13T09:34:45.811Z,1000.62
2023-01-13T09:36:06.723Z,1000.55
2023-01-13T09:36:45.672Z,1000.55
2023-01-13T09:37:45.604Z,1000.56
2023-01-13T09:38:45.544Z,1000.54
2023-01-13T09:39:45.481Z,1000.54
2023-01-13T09:40:45.419Z,1000.54
2023-01-13T09:42:06.337Z,1000.64
2023-01-13T09:42:45.284Z,1000.63
2023-01-13T09:43:45.223Z,1000.56
2023-01-13T09:44:45.177Z,1000.50
2023-01-13T09:45:45.096Z,1000.43
2023-01-13T09:46:45.081Z,1000.40
2023-01-13T09:48:05.939Z,1000.36
2023-01-13T09:48:44.893Z,1000.31
2023-01-13T09:49:44.864Z,1000.28
2023-01-13T09:50:44.781Z,1000.29
2023-01-13T09:51:44.853Z,1000.27
2023-01-13T09:52:44.689Z,1000.32
2023-01-13T09:54:05.556Z,1000.36
2023-01-13T09:54:44.501Z,1000.47
2023-01-13T09:55:44.439Z,1000.51
2023-01-13T09:56:44.395Z,1000.57
2023-01-13T09:57:44.311Z,1000.58
2023-01-13T09:58:44.252Z,1000.59
2023-01-13T10:00:05.174Z,1000.66
2023-01-13T10:00:44.117Z,1000.68
2023-01-13T10:01:44.051Z,1000.72
2023-01-13T10:02:44.022Z,1000.66
2023-01-13T10:03:43.947Z,1000.65
2023-01-13T10:04:43.878Z,1000.71
2023-01-13T10:06:04.795Z,1000.69
2023-01-13T10:06:43.754Z,1000.68
2023-01-13T10:07:43.668Z,1000.64
2023-01-13T10:08:43.617Z,1000.65
2023-01-13T10:09:43.567Z,1000.62
2023-01-13T10:10:43.485Z,1000.67
2023-01-13T10:12:04.423Z,1000.72
2023-01-13T10:12:43.374Z,1000.80
2023-01-13T10:13:43.315Z,1000.79
2023-01-13T10:14:43.253Z,1000.75
2023-01-13T10:15:43.218Z,1000.75
2023-01-13T10:16:43.122Z,1000.76
2023-01-13T10:18:04.066Z,1000.80
2023-01-13T10:18:43.007Z,1000.76
2023-01-13T10:19:42.943Z,1000.90
2023-01-13T10:20:42.880Z,1000.78
2023-01-13T10:21:42.813Z,1000.75
2023-01-13T10:22:42.753Z,1000.70
2023-01-13T10:24:03.674Z,1000.71
2023-01-13T10:24:42.712Z,1000.68
2023-01-13T10:25:42.555Z,1000.67
2023-01-13T10:26:42.509Z,1000.64
2023-01-13T10:27:42.460Z,1000.62
2023-01-13T10:28:42.380Z,1000.58
2023-01-13T10:30:03.318Z,1000.59
2023-01-13T10:30:42.267Z,1000.62
2023-01-13T10:31:42.225Z,1000.65
2023-01-13T10:32:42.140Z,1000.65
2023-01-13T10:33:42.074Z,1000.64
2023-01-13T10:34:42.012Z,1000.65
2023-01-13T10:36:02.977Z,1000.68
2023-01-13T10:36:41.896Z,1000.67
2023-01-13T10:37:41.826Z,1000.67
2023-01-13T10:38:41.778Z,1000.66
2023-01-13T10:39:41.709Z,1000.68
2023-01-13T10:40:41.654Z,1000.65
2023-01-13T10:42:02.570Z,1000.65
2023-01-13T10:42:41.519Z,1000.68
2023-01-13T10:43:41.446Z,1000.71
2023-01-13T10:44:41.417Z,1000.70
2023-01-13T10:45:41.323Z,1000.59
2023-01-13T10:46:41.361Z,1000.63
2023-01-13T10:48:02.202Z,1000.63
2023-01-13T10:48:41.191Z,1000.57
2023-01-13T10:49:41.103Z,1000.58
2023-01-13T10:50:41.003Z,1000.55
2023-01-13T10:51:40.947Z,1000.52
2023-01-13T10:52:40.881Z,1000.51
2023-01-13T10:54:01.824Z,1000.57
2023-01-13T10:54:40.810Z,1000.61
2023-01-13T10:55:40.709Z,1000.62
2023-01-13T10:56:40.640Z,1000.62
2023-01-13T10:57:40.585Z,1000.60
2023-01-13T10:58:40.498Z,1000.57
2023-01-13T11:00:01.452Z,1000.57
2023-01-13T11:00:40.367Z,1000.54
2023-01-13T11:01:40.405Z,1000.58
2023-01-13T11:02:40.266Z,1000.57
2023-01-13T11:03:40.180Z,1000.59
2023-01-13T11:04:40.145Z,1000.57
2023-01-13T11:06:01.056Z,1000.62
2023-01-13T11:06:39.975Z,1000.59
2023-01-13T11:07:39.922Z,1000.59
2023-01-13T11:08:39.864Z,1000.56
2023-01-13T11:09:39.808Z,1000.58
2023-01-13T11:10:39.725Z,1000.60
2023-01-13T11:12:00.676Z,1000.60
2023-01-13T11:12:39.598Z,1000.65
2023-01-13T11:13:39.530Z,1000.64
2023-01-13T11:14:39.496Z,1000.64
2023-01-13T11:15:39.409Z,1000.64
2023-01-13T11:16:44.731Z,1000.63
2023-01-13T11:18:00.272Z,1000.65
2023-01-13T11:18:39.213Z,1000.67
2023-01-13T11:19:39.146Z,1000.86
2023-01-13T11:20:39.087Z,1000.86
2023-01-13T11:21:39.030Z,1000.83
2023-01-13T11:22:38.953Z,1000.76
2023-01-13T11:23:59.877Z,1000.62
2023-01-13T11:24:38.823Z,1000.65
2023-01-13T11:25:38.784Z,1000.66
2023-01-13T11:26:38.701Z,1000.66
2023-01-13T11:27:38.640Z,1000.62
2023-01-13T11:28:38.578Z,1000.65
2023-01-13T11:29:59.505Z,1000.61
2023-01-13T11:30:38.482Z,1000.59
2023-01-13T11:31:38.420Z,1000.53
2023-01-13T11:32:38.329Z,1000.53
2023-01-13T11:33:38.269Z,1000.55
2023-01-13T11:34:38.201Z,1000.55
2023-01-13T11:35:59.140Z,1000.55
2023-01-13T11:36:38.063Z,1000.43
2023-01-13T11:37:38.009Z,1000.50
2023-01-13T11:38:37.942Z,1000.50
2023-01-13T11:39:37.909Z,1000.60
2023-01-13T11:40:37.820Z,1000.57
2023-01-13T11:41:58.735Z,1000.55
2023-01-13T11:42:37.685Z,1000.50
2023-01-13T11:43:37.645Z,1000.59
2023-01-13T11:44:37.562Z,1000.48
2023-01-13T11:45:37.523Z,1000.51
2023-01-13T11:46:37.507Z,1000.55
2023-01-13T11:47:58.394Z,1000.50
2023-01-13T11:48:37.309Z,1000.50
2023-01-13T11:49:37.238Z,1000.51
2023-01-13T11:50:37.180Z,1000.53
2023-01-13T11:51:37.154Z,1000.54
2023-01-13T11:52:37.044Z,1000.54
2023-01-13T11:53:57.969Z,1000.49
2023-01-13T11:54:36.919Z,1000.50
2023-01-13T11:55:36.877Z,1000.49
2023-01-13T11:56:36.787Z,1000.48
2023-01-13T11:57:36.735Z,1000.47
2023-01-13T11:58:49.658Z,1000.54
2023-01-13T11:59:57.595Z,1000.57
2023-01-13T12:00:36.536Z,1000.43
2023-01-13T12:01:36.508Z,1000.51
2023-01-13T12:02:36.411Z,1000.58
2023-01-13T12:03:36.357Z,1000.51
2023-01-13T12:04:36.288Z,1000.51
2023-01-13T12:05:57.211Z,1000.55
2023-01-13T12:06:36.142Z,1000.52
2023-01-13T12:07:36.101Z,1000.60
2023-01-13T12:08:36.015Z,1000.61
2023-01-13T12:09:35.959Z,1000.59
2023-01-13T12:10:35.887Z,1000.53
2023-01-13T12:11:56.812Z,1000.67
2023-01-13T12:12:35.756Z,1000.58
2023-01-13T12:13:35.727Z,1000.63
2023-01-13T12:14:35.628Z,1000.53
2023-01-13T12:15:35.566Z,1000.53
2023-01-13T12:16:35.554Z,1000.58